sensor_id;sensor_type;location;lat;lon;timestamp;temperature;humidity
70475;DHT22;57944;48.722;9.316;2022-11-23T00:02:20;1.90;99.90
70475;DHT22;57944;48.722;9.316;2022-11-23T00:04:51;1.90;99.90
70475;DHT22;57944;48.722;9.316;2022-11-23T00:07:21;1.90;99.90
70475;DHT22;57944;48.722;9.316;2022-11-23T00:09:51;1.80;99.90
70475;DHT22;57944;48.722;9.316;2022-11-23T00:12:24;1.80;99.90
70475;DHT22;57944;48.722;9.316;2022-11-23T00:14:54;1.70;99.90
70475;DHT22;57944;48.722;9.316;2022-11-23T00:17:24;1.50;99.90
70475;DHT22;57944;48.722;9.316;2022-11-23T00:19:54;1.70;99.90
70475;DHT22;57944;48.722;9.316;2022-11-23T00:22:24;1.80;99.90
70475;DHT22;57944;48.722;9.316;2022-11-23T00:24:54;1.90;99.90
70475;DHT22;57944;48.722;9.316;2022-11-23T00:27:27;1.90;99.90
70475;DHT22;57944;48.722;9.316;2022-11-23T00:29:57;1.90;99.90
70475;DHT22;57944;48.722;9.316;2022-11-23T00:32:28;1.90;99.90
70475;DHT22;57944;48.722;9.316;2022-11-23T00:34:58;1.90;99.90
70475;DHT22;57944;48.722;9.316;2022-11-23T00:37:30;1.90;99.90
70475;DHT22;57944;48.722;9.316;2022-11-23T00:40:00;2.00;99.90
70475;DHT22;57944;48.722;9.316;2022-11-23T00:42:32;2.00;99.90
70475;DHT22;57944;48.722;9.316;2022-11-23T00:45:05;2.00;99.90
70475;DHT22;57944;48.722;9.316;2022-11-23T00:47:36;1.90;99.90
70475;DHT22;57944;48.722;9.316;2022-11-23T00:50:07;1.90;99.90
70475;DHT22;57944;48.722;9.316;2022-11-23T00:52:38;1.90;99.90
70475;DHT22;57944;48.722;9.316;2022-11-23T00:55:08;1.90;99.90
70475;DHT22;57944;48.722;9.316;2022-11-23T00:57:41;1.90;99.90
70475;DHT22;57944;48.722;9.316;2022-11-23T01:00:12;1.90;99.90
70475;DHT22;57944;48.722;9.316;2022-11-23T01:02:42;1.90;99.90
70475;DHT22;57944;48.722;9.316;2022-11-23T01:05:13;2.00;99.90
70475;DHT22;57944;48.722;9.316;2022-11-23T01:07:43;2.00;99.90
70475;DHT22;57944;48.722;9.316;2022-11-23T01:10:13;2.10;99.90
70475;DHT22;57944;48.722;9.316;2022-11-23T01:12:46;2.20;99.90
70475;DHT22;57944;48.722;9.316;2022-11-23T01:15:16;2.30;99.90
70475;DHT22;57944;48.722;9.316;2022-11-23T01:17:46;2.40;99.90
70475;DHT22;57944;48.722;9.316;2022-11-23T01:20:16;2.50;99.90
70475;DHT22;57944;48.722;9.316;2022-11-23T01:22:46;2.50;99.90
70475;DHT22;57944;48.722;9.316;2022-11-23T01:25:17;2.50;99.90
70475;DHT22;57944;48.722;9.316;2022-11-23T01:27:49;2.40;99.90
70475;DHT22;57944;48.722;9.316;2022-11-23T01:30:22;2.40;99.90
70475;DHT22;57944;48.722;9.316;2022-11-23T01:32:52;2.70;99.90
70475;DHT22;57944;48.722;9.316;2022-11-23T01:35:23;2.80;99.90
70475;DHT22;57944;48.722;9.316;2022-11-23T01:37:53;2.90;99.90
70475;DHT22;57944;48.722;9.316;2022-11-23T01:40:24;3.00;99.90
70475;DHT22;57944;48.722;9.316;2022-11-23T01:42:58;3.10;99.90
70475;DHT22;57944;48.722;9.316;2022-11-23T01:45:56;3.20;99.90
70475;DHT22;57944;48.722;9.316;2022-11-23T01:48:30;3.10;99.90
70475;DHT22;57944;48.722;9.316;2022-11-23T01:51:05;3.10;99.90
70475;DHT22;57944;48.722;9.316;2022-11-23T01:53:39;3.10;99.90
70475;DHT22;57944;48.722;9.316;2022-11-23T01:56:17;3.10;99.90
70475;DHT22;57944;48.722;9.316;2022-11-23T01:58:56;3.10;99.90
70475;DHT22;57944;48.722;9.316;2022-11-23T02:01:30;2.80;99.90
70475;DHT22;57944;48.722;9.316;2022-11-23T02:04:01;2.70;99.90
70475;DHT22;57944;48.722;9.316;2022-11-23T02:06:32;2.70;99.90
70475;DHT22;57944;48.722;9.316;2022-11-23T02:09:03;2.80;99.90
70475;DHT22;57944;48.722;9.316;2022-11-23T02:11:34;2.70;99.90
70475;DHT22;57944;48.722;9.316;2022-11-23T02:14:07;2.80;99.90
70475;DHT22;57944;48.722;9.316;2022-11-23T02:16:38;2.80;99.90
70475;DHT22;57944;48.722;9.316;2022-11-23T02:19:15;2.70;99.90
70475;DHT22;57944;48.722;9.316;2022-11-23T02:21:55;2.70;99.90
70475;DHT22;57944;48.722;9.316;2022-11-23T02:24:29;2.60;99.90
70475;DHT22;57944;48.722;9.316;2022-11-23T02:27:12;2.50;99.90
70475;DHT22;57944;48.722;9.316;2022-11-23T02:29:45;2.40;99.90
70475;DHT22;57944;48.722;9.316;2022-11-23T02:32:21;2.10;99.90
70475;DHT22;57944;48.722;9.316;2022-11-23T02:34:55;2.00;99.90
70475;DHT22;57944;48.722;9.316;2022-11-23T02:37:25;1.90;99.90
70475;DHT22;57944;48.722;9.316;2022-11-23T02:39:57;1.90;99.90
70475;DHT22;57944;48.722;9.316;2022-11-23T02:42:37;1.80;99.90
70475;DHT22;57944;48.722;9.316;2022-11-23T02:45:14;1.70;99.90
70475;DHT22;57944;48.722;9.316;2022-11-23T02:47:51;1.70;99.90
70475;DHT22;57944;48.722;9.316;2022-11-23T02:50:22;1.60;99.90
70475;DHT22;57944;48.722;9.316;2022-11-23T02:52:52;1.70;99.90
70475;DHT22;57944;48.722;9.316;2022-11-23T02:55:23;1.50;99.90
70475;DHT22;57944;48.722;9.316;2022-11-23T02:57:56;1.30;99.90
70475;DHT22;57944;48.722;9.316;2022-11-23T03:00:27;1.30;99.90
70475;DHT22;57944;48.722;9.316;2022-11-23T03:03:00;1.30;99.90
70475;DHT22;57944;48.722;9.316;2022-11-23T03:05:32;1.40;99.90
70475;DHT22;57944;48.722;9.316;2022-11-23T03:08:05;1.40;99.90
70475;DHT22;57944;48.722;9.316;2022-11-23T03:10:37;1.30;99.90
70475;DHT22;57944;48.722;9.316;2022-11-23T03:13:10;1.20;99.90
70475;DHT22;57944;48.722;9.316;2022-11-23T03:15:40;1.10;99.90
70475;DHT22;57944;48.722;9.316;2022-11-23T03:18:11;0.90;99.90
70475;DHT22;57944;48.722;9.316;2022-11-23T03:20:42;1.00;99.90
70475;DHT22;57944;48.722;9.316;2022-11-23T03:23:12;0.90;99.90
70475;DHT22;57944;48.722;9.316;2022-11-23T03:25:43;1.00;99.90
70475;DHT22;57944;48.722;9.316;2022-11-23T03:28:17;1.00;99.90
70475;DHT22;57944;48.722;9.316;2022-11-23T03:30:47;0.90;99.90
70475;DHT22;57944;48.722;9.316;2022-11-23T03:33:17;0.90;99.90
70475;DHT22;57944;48.722;9.316;2022-11-23T03:35:49;1.00;99.90
70475;DHT22;57944;48.722;9.316;2022-11-23T03:38:22;1.00;99.90
70475;DHT22;57944;48.722;9.316;2022-11-23T03:40:53;1.10;99.90
70475;DHT22;57944;48.722;9.316;2022-11-23T03:43:39;1.20;99.90
70475;DHT22;57944;48.722;9.316;2022-11-23T03:46:09;1.30;99.90
70475;DHT22;57944;48.722;9.316;2022-11-23T03:48:39;1.50;99.90
70475;DHT22;57944;48.722;9.316;2022-11-23T03:51:09;1.70;99.90
70475;DHT22;57944;48.722;9.316;2022-11-23T03:53:39;1.80;99.90
70475;DHT22;57944;48.722;9.316;2022-11-23T03:56:09;1.90;99.90
70475;DHT22;57944;48.722;9.316;2022-11-23T03:58:46;1.90;99.90
70475;DHT22;57944;48.722;9.316;2022-11-23T04:01:17;2.10;99.90
70475;DHT22;57944;48.722;9.316;2022-11-23T04:03:53;2.10;99.90
70475;DHT22;57944;48.722;9.316;2022-11-23T04:06:44;2.20;99.90
70475;DHT22;57944;48.722;9.316;2022-11-23T04:09:21;2.10;99.90
70475;DHT22;57944;48.722;9.316;2022-11-23T04:12:11;2.30;99.90
70475;DHT22;57944;48.722;9.316;2022-11-23T04:14:45;2.30;99.90
70475;DHT22;57944;48.722;9.316;2022-11-23T04:17:15;2.40;99.90
70475;DHT22;57944;48.722;9.316;2022-11-23T04:19:45;2.40;99.90
70475;DHT22;57944;48.722;9.316;2022-11-23T04:22:15;2.50;99.90
70475;DHT22;57944;48.722;9.316;2022-11-23T04:24:46;2.60;99.90
70475;DHT22;57944;48.722;9.316;2022-11-23T04:27:17;2.70;99.90
70475;DHT22;57944;48.722;9.316;2022-11-23T04:29:50;2.70;99.90
70475;DHT22;57944;48.722;9.316;2022-11-23T04:32:20;2.80;99.90
70475;DHT22;57944;48.722;9.316;2022-11-23T04:34:50;2.80;99.90
70475;DHT22;57944;48.722;9.316;2022-11-23T04:37:20;2.90;99.90
70475;DHT22;57944;48.722;9.316;2022-11-23T04:39:51;2.90;99.90
70475;DHT22;57944;48.722;9.316;2022-11-23T04:42:39;2.90;99.90
70475;DHT22;57944;48.722;9.316;2022-11-23T04:45:12;2.80;99.90
70475;DHT22;57944;48.722;9.316;2022-11-23T04:47:43;2.80;99.90
70475;DHT22;57944;48.722;9.316;2022-11-23T04:50:15;2.80;99.90
70475;DHT22;57944;48.722;9.316;2022-11-23T04:52:49;2.80;99.90
70475;DHT22;57944;48.722;9.316;2022-11-23T04:55:24;2.90;99.90
70475;DHT22;57944;48.722;9.316;2022-11-23T04:57:57;2.90;99.90
70475;DHT22;57944;48.722;9.316;2022-11-23T05:00:32;2.90;99.90
70475;DHT22;57944;48.722;9.316;2022-11-23T05:03:04;2.70;99.90
70475;DHT22;57944;48.722;9.316;2022-11-23T05:05:38;2.50;99.90
70475;DHT22;57944;48.722;9.316;2022-11-23T05:08:09;2.40;99.90
70475;DHT22;57944;48.722;9.316;2022-11-23T05:10:49;2.30;99.90
70475;DHT22;57944;48.722;9.316;2022-11-23T05:13:19;2.30;99.90
70475;DHT22;57944;48.722;9.316;2022-11-23T05:15:52;2.20;99.90
70475;DHT22;57944;48.722;9.316;2022-11-23T05:18:26;2.20;99.90
70475;DHT22;57944;48.722;9.316;2022-11-23T05:20:57;2.20;99.90
70475;DHT22;57944;48.722;9.316;2022-11-23T05:23:28;2.10;99.90
70475;DHT22;57944;48.722;9.316;2022-11-23T05:25:58;2.10;99.90
70475;DHT22;57944;48.722;9.316;2022-11-23T05:28:30;2.00;99.90
70475;DHT22;57944;48.722;9.316;2022-11-23T05:31:14;2.00;99.90
70475;DHT22;57944;48.722;9.316;2022-11-23T05:33:46;2.00;99.90
70475;DHT22;57944;48.722;9.316;2022-11-23T05:36:24;1.90;99.90
70475;DHT22;57944;48.722;9.316;2022-11-23T05:38:54;2.00;99.90
70475;DHT22;57944;48.722;9.316;2022-11-23T05:41:29;2.00;99.90
70475;DHT22;57944;48.722;9.316;2022-11-23T05:44:01;2.00;99.90
70475;DHT22;57944;48.722;9.316;2022-11-23T05:46:34;2.00;99.90
70475;DHT22;57944;48.722;9.316;2022-11-23T05:49:04;1.90;99.90
70475;DHT22;57944;48.722;9.316;2022-11-23T05:51:36;1.90;99.90
70475;DHT22;57944;48.722;9.316;2022-11-23T05:54:07;1.70;99.90
70475;DHT22;57944;48.722;9.316;2022-11-23T05:56:42;1.80;99.90
70475;DHT22;57944;48.722;9.316;2022-11-23T05:59:16;1.70;99.90
70475;DHT22;57944;48.722;9.316;2022-11-23T06:01:53;1.80;99.90
70475;DHT22;57944;48.722;9.316;2022-11-23T06:04:28;1.90;99.90
70475;DHT22;57944;48.722;9.316;2022-11-23T06:06:59;1.90;99.90
70475;DHT22;57944;48.722;9.316;2022-11-23T06:09:40;1.90;99.90
70475;DHT22;57944;48.722;9.316;2022-11-23T06:12:11;1.90;99.90
70475;DHT22;57944;48.722;9.316;2022-11-23T06:14:41;2.00;99.90
70475;DHT22;57944;48.722;9.316;2022-11-23T06:17:16;2.00;99.90
70475;DHT22;57944;48.722;9.316;2022-11-23T06:19:48;2.10;99.90
70475;DHT22;57944;48.722;9.316;2022-11-23T06:22:18;2.10;99.90
70475;DHT22;57944;48.722;9.316;2022-11-23T06:24:56;2.00;99.90
70475;DHT22;57944;48.722;9.316;2022-11-23T06:27:38;2.00;99.90
70475;DHT22;57944;48.722;9.316;2022-11-23T06:30:16;1.90;99.90
70475;DHT22;57944;48.722;9.316;2022-11-23T06:32:49;1.90;99.90
70475;DHT22;57944;48.722;9.316;2022-11-23T06:35:21;1.90;99.90
70475;DHT22;57944;48.722;9.316;2022-11-23T06:37:52;1.90;99.90
70475;DHT22;57944;48.722;9.316;2022-11-23T06:40:22;1.80;99.90
70475;DHT22;57944;48.722;9.316;2022-11-23T06:42:57;1.80;99.90
70475;DHT22;57944;48.722;9.316;2022-11-23T06:45:36;1.80;99.90
70475;DHT22;57944;48.722;9.316;2022-11-23T06:48:12;1.80;99.90
70475;DHT22;57944;48.722;9.316;2022-11-23T06:50:46;1.80;99.90
70475;DHT22;57944;48.722;9.316;2022-11-23T06:53:18;1.70;99.90
70475;DHT22;57944;48.722;9.316;2022-11-23T06:55:57;1.70;99.90
70475;DHT22;57944;48.722;9.316;2022-11-23T06:58:29;1.70;99.90
70475;DHT22;57944;48.722;9.316;2022-11-23T07:01:04;1.60;99.90
70475;DHT22;57944;48.722;9.316;2022-11-23T07:03:43;1.70;99.90
70475;DHT22;57944;48.722;9.316;2022-11-23T07:06:21;1.70;99.90
70475;DHT22;57944;48.722;9.316;2022-11-23T07:08:54;1.60;99.90
70475;DHT22;57944;48.722;9.316;2022-11-23T07:11:35;1.70;99.90
70475;DHT22;57944;48.722;9.316;2022-11-23T07:14:06;1.60;99.90
70475;DHT22;57944;48.722;9.316;2022-11-23T07:16:38;1.60;99.90
70475;DHT22;57944;48.722;9.316;2022-11-23T07:19:11;1.60;99.90
70475;DHT22;57944;48.722;9.316;2022-11-23T07:21:44;1.60;99.90
70475;DHT22;57944;48.722;9.316;2022-11-23T07:24:15;1.60;99.90
70475;DHT22;57944;48.722;9.316;2022-11-23T07:26:45;1.60;99.90
70475;DHT22;57944;48.722;9.316;2022-11-23T07:29:15;1.60;99.90
70475;DHT22;57944;48.722;9.316;2022-11-23T07:31:45;1.70;99.90
70475;DHT22;57944;48.722;9.316;2022-11-23T07:34:18;1.70;99.90
70475;DHT22;57944;48.722;9.316;2022-11-23T07:36:48;1.80;99.90
70475;DHT22;57944;48.722;9.316;2022-11-23T07:39:18;1.90;99.90
70475;DHT22;57944;48.722;9.316;2022-11-23T07:42:08;1.90;99.90
70475;DHT22;57944;48.722;9.316;2022-11-23T07:44:59;2.00;99.90
70475;DHT22;57944;48.722;9.316;2022-11-23T07:47:29;2.00;99.90
70475;DHT22;57944;48.722;9.316;2022-11-23T07:50:02;2.00;99.90
70475;DHT22;57944;48.722;9.316;2022-11-23T07:52:32;2.10;99.90
70475;DHT22;57944;48.722;9.316;2022-11-23T07:55:05;2.30;99.90
70475;DHT22;57944;48.722;9.316;2022-11-23T07:57:35;2.30;99.90
70475;DHT22;57944;48.722;9.316;2022-11-23T08:00:07;2.50;99.90
70475;DHT22;57944;48.722;9.316;2022-11-23T08:02:39;2.60;99.90
70475;DHT22;57944;48.722;9.316;2022-11-23T08:05:33;2.70;99.90
70475;DHT22;57944;48.722;9.316;2022-11-23T08:08:04;2.70;99.90
70475;DHT22;57944;48.722;9.316;2022-11-23T08:10:34;2.80;99.90
70475;DHT22;57944;48.722;9.316;2022-11-23T08:13:13;2.90;99.90
70475;DHT22;57944;48.722;9.316;2022-11-23T08:15:43;3.00;99.90
70475;DHT22;57944;48.722;9.316;2022-11-23T08:18:20;3.00;99.90
70475;DHT22;57944;48.722;9.316;2022-11-23T08:20:54;3.10;99.90
70475;DHT22;57944;48.722;9.316;2022-11-23T08:23:28;3.10;99.90
70475;DHT22;57944;48.722;9.316;2022-11-23T08:25:58;3.30;99.90
70475;DHT22;57944;48.722;9.316;2022-11-23T08:28:39;3.20;99.90
70475;DHT22;57944;48.722;9.316;2022-11-23T08:31:10;3.10;99.90
70475;DHT22;57944;48.722;9.316;2022-11-23T08:33:41;3.20;99.90
70475;DHT22;57944;48.722;9.316;2022-11-23T08:36:13;3.20;99.90
70475;DHT22;57944;48.722;9.316;2022-11-23T08:38:44;3.20;99.90
70475;DHT22;57944;48.722;9.316;2022-11-23T08:41:17;3.20;99.90
70475;DHT22;57944;48.722;9.316;2022-11-23T08:43:47;3.10;99.90
70475;DHT22;57944;48.722;9.316;2022-11-23T08:46:18;3.20;99.90
70475;DHT22;57944;48.722;9.316;2022-11-23T08:48:48;3.40;99.90
70475;DHT22;57944;48.722;9.316;2022-11-23T08:51:20;3.40;99.90
70475;DHT22;57944;48.722;9.316;2022-11-23T08:53:51;3.50;99.90
70475;DHT22;57944;48.722;9.316;2022-11-23T08:56:21;3.50;99.90
70475;DHT22;57944;48.722;9.316;2022-11-23T08:58:51;3.70;99.90
70475;DHT22;57944;48.722;9.316;2022-11-23T09:01:21;3.80;99.90
70475;DHT22;57944;48.722;9.316;2022-11-23T09:03:51;3.80;99.90
70475;DHT22;57944;48.722;9.316;2022-11-23T09:06:24;3.90;99.90
70475;DHT22;57944;48.722;9.316;2022-11-23T09:08:55;4.10;99.90
70475;DHT22;57944;48.722;9.316;2022-11-23T09:11:25;4.20;99.90
70475;DHT22;57944;48.722;9.316;2022-11-23T09:13:55;4.40;99.90
70475;DHT22;57944;48.722;9.316;2022-11-23T09:16:25;4.40;99.90
70475;DHT22;57944;48.722;9.316;2022-11-23T09:19:00;4.50;99.90
70475;DHT22;57944;48.722;9.316;2022-11-23T09:21:32;4.70;99.90
70475;DHT22;57944;48.722;9.316;2022-11-23T09:24:05;4.60;99.90
70475;DHT22;57944;48.722;9.316;2022-11-23T09:26:35;4.60;99.90
70475;DHT22;57944;48.722;9.316;2022-11-23T09:29:06;4.50;99.90
70475;DHT22;57944;48.722;9.316;2022-11-23T09:31:37;4.60;99.90
70475;DHT22;57944;48.722;9.316;2022-11-23T09:34:10;4.80;99.90
70475;DHT22;57944;48.722;9.316;2022-11-23T09:36:43;5.00;99.90
70475;DHT22;57944;48.722;9.316;2022-11-23T09:39:14;5.10;99.90
70475;DHT22;57944;48.722;9.316;2022-11-23T09:41:58;4.90;99.90
70475;DHT22;57944;48.722;9.316;2022-11-23T09:47:49;5.20;99.90
70475;DHT22;57944;48.722;9.316;2022-11-23T09:50:45;5.20;99.90
70475;DHT22;57944;48.722;9.316;2022-11-23T09:53:24;5.20;99.90
70475;DHT22;57944;48.722;9.316;2022-11-23T09:56:02;5.20;99.90
70475;DHT22;57944;48.722;9.316;2022-11-23T09:58:36;5.30;99.90
70475;DHT22;57944;48.722;9.316;2022-11-23T10:01:12;5.40;99.90
70475;DHT22;57944;48.722;9.316;2022-11-23T10:03:44;5.50;99.90
70475;DHT22;57944;48.722;9.316;2022-11-23T10:06:18;5.70;99.90
70475;DHT22;57944;48.722;9.316;2022-11-23T10:09:11;5.80;99.90
70475;DHT22;57944;48.722;9.316;2022-11-23T10:12:02;5.80;99.90
70475;DHT22;57944;48.722;9.316;2022-11-23T10:14:54;5.80;99.90
70475;DHT22;57944;48.722;9.316;2022-11-23T10:17:47;5.80;99.90
70475;DHT22;57944;48.722;9.316;2022-11-23T10:20:46;6.00;99.90
70475;DHT22;57944;48.722;9.316;2022-11-23T10:23:33;6.10;99.90
70475;DHT22;57944;48.722;9.316;2022-11-23T10:26:18;6.20;99.90
70475;DHT22;57944;48.722;9.316;2022-11-23T10:28:53;6.40;99.90
70475;DHT22;57944;48.722;9.316;2022-11-23T10:31:24;6.20;99.90
70475;DHT22;57944;48.722;9.316;2022-11-23T10:33:59;6.40;99.90
70475;DHT22;57944;48.722;9.316;2022-11-23T10:36:37;6.60;99.90
70475;DHT22;57944;48.722;9.316;2022-11-23T10:39:20;6.60;99.90
70475;DHT22;57944;48.722;9.316;2022-11-23T10:41:58;6.70;99.90
70475;DHT22;57944;48.722;9.316;2022-11-23T10:44:34;6.80;99.90
70475;DHT22;57944;48.722;9.316;2022-11-23T10:47:08;6.90;99.90
70475;DHT22;57944;48.722;9.316;2022-11-23T10:49:55;7.00;99.90
70475;DHT22;57944;48.722;9.316;2022-11-23T10:52:28;7.10;99.90
70475;DHT22;57944;48.722;9.316;2022-11-23T10:55:01;7.10;99.90
70475;DHT22;57944;48.722;9.316;2022-11-23T10:57:43;7.20;99.90
70475;DHT22;57944;48.722;9.316;2022-11-23T11:00:18;7.30;99.90
70475;DHT22;57944;48.722;9.316;2022-11-23T11:02:57;7.10;99.90
70475;DHT22;57944;48.722;9.316;2022-11-23T11:05:31;7.00;99.90
70475;DHT22;57944;48.722;9.316;2022-11-23T11:08:28;6.90;99.90
70475;DHT22;57944;48.722;9.316;2022-11-23T11:11:01;6.80;99.90
70475;DHT22;57944;48.722;9.316;2022-11-23T11:13:42;7.00;99.90
70475;DHT22;57944;48.722;9.316;2022-11-23T11:16:19;7.10;99.90
70475;DHT22;57944;48.722;9.316;2022-11-23T11:18:52;7.30;99.90
70475;DHT22;57944;48.722;9.316;2022-11-23T11:21:25;7.30;99.90
70475;DHT22;57944;48.722;9.316;2022-11-23T11:24:02;7.40;99.90
70475;DHT22;57944;48.722;9.316;2022-11-23T11:26:46;7.40;99.90
70475;DHT22;57944;48.722;9.316;2022-11-23T11:29:32;7.40;99.90
70475;DHT22;57944;48.722;9.316;2022-11-23T11:32:10;7.50;99.90
70475;DHT22;57944;48.722;9.316;2022-11-23T11:34:46;7.50;99.90
70475;DHT22;57944;48.722;9.316;2022-11-23T11:37:28;7.60;99.90
70475;DHT22;57944;48.722;9.316;2022-11-23T11:40:08;7.70;99.90
70475;DHT22;57944;48.722;9.316;2022-11-23T11:43:02;7.90;99.90
70475;DHT22;57944;48.722;9.316;2022-11-23T11:45:41;7.90;99.90
70475;DHT22;57944;48.722;9.316;2022-11-23T11:51:22;8.10;99.90
70475;DHT22;57944;48.722;9.316;2022-11-23T11:54:00;8.20;99.90
70475;DHT22;57944;48.722;9.316;2022-11-23T11:56:37;8.30;99.90
70475;DHT22;57944;48.722;9.316;2022-11-23T11:59:15;8.40;99.90
70475;DHT22;57944;48.722;9.316;2022-11-23T12:01:56;8.40;99.90
70475;DHT22;57944;48.722;9.316;2022-11-23T12:04:48;8.40;99.90
70475;DHT22;57944;48.722;9.316;2022-11-23T12:07:30;8.30;99.90
70475;DHT22;57944;48.722;9.316;2022-11-23T12:10:09;8.30;99.90
70475;DHT22;57944;48.722;9.316;2022-11-23T12:12:43;8.20;99.90
70475;DHT22;57944;48.722;9.316;2022-11-23T12:15:17;8.30;99.90
70475;DHT22;57944;48.722;9.316;2022-11-23T12:20:53;8.30;99.90
70475;DHT22;57944;48.722;9.316;2022-11-23T12:26:33;8.60;99.90
70475;DHT22;57944;48.722;9.316;2022-11-23T12:47:40;8.40;99.90
70475;DHT22;57944;48.722;9.316;2022-11-23T12:50:22;8.40;99.90
70475;DHT22;57944;48.722;9.316;2022-11-23T12:53:33;8.40;99.90
70475;DHT22;57944;48.722;9.316;2022-11-23T12:56:20;8.50;99.90
70475;DHT22;57944;48.722;9.316;2022-11-23T12:59:13;8.50;99.90
70475;DHT22;57944;48.722;9.316;2022-11-23T13:01:50;8.40;99.90
70475;DHT22;57944;48.722;9.316;2022-11-23T13:16:23;8.40;99.90
70475;DHT22;57944;48.722;9.316;2022-11-23T13:19:38;8.40;99.90
70475;DHT22;57944;48.722;9.316;2022-11-23T13:22:19;8.50;99.90
70475;DHT22;57944;48.722;9.316;2022-11-23T13:25:25;8.50;99.90
70475;DHT22;57944;48.722;9.316;2022-11-23T13:28:02;8.60;99.90
70475;DHT22;57944;48.722;9.316;2022-11-23T13:30:34;8.60;99.90
70475;DHT22;57944;48.722;9.316;2022-11-23T13:36:13;8.70;99.90
70475;DHT22;57944;48.722;9.316;2022-11-23T13:45:31;8.70;99.90
70475;DHT22;57944;48.722;9.316;2022-11-23T13:48:13;8.80;99.90
70475;DHT22;57944;48.722;9.316;2022-11-23T13:53:56;8.70;99.90
70475;DHT22;57944;48.722;9.316;2022-11-23T13:56:31;8.30;99.90
70475;DHT22;57944;48.722;9.316;2022-11-23T13:59:32;8.20;99.90
70475;DHT22;57944;48.722;9.316;2022-11-23T14:02:27;8.20;99.90
70475;DHT22;57944;48.722;9.316;2022-11-23T14:10:34;8.20;99.90
70475;DHT22;57944;48.722;9.316;2022-11-23T14:13:10;8.10;99.90
70475;DHT22;57944;48.722;9.316;2022-11-23T14:15:53;8.10;99.90
70475;DHT22;57944;48.722;9.316;2022-11-23T14:18:55;8.00;99.90
70475;DHT22;57944;48.722;9.316;2022-11-23T14:21:38;7.90;99.90
70475;DHT22;57944;48.722;9.316;2022-11-23T14:24:46;7.80;99.90
70475;DHT22;57944;48.722;9.316;2022-11-23T14:27:43;7.80;99.90
70475;DHT22;57944;48.722;9.316;2022-11-23T14:30:46;7.80;99.90
70475;DHT22;57944;48.722;9.316;2022-11-23T14:33:33;7.70;99.90
70475;DHT22;57944;48.722;9.316;2022-11-23T14:36:40;7.70;99.90
70475;DHT22;57944;48.722;9.316;2022-11-23T14:42:24;7.60;99.90
70475;DHT22;57944;48.722;9.316;2022-11-23T14:45:00;7.60;99.90
70475;DHT22;57944;48.722;9.316;2022-11-23T14:47:33;7.60;99.90
70475;DHT22;57944;48.722;9.316;2022-11-23T14:50:04;7.40;99.90
70475;DHT22;57944;48.722;9.316;2022-11-23T14:52:37;7.40;99.90
70475;DHT22;57944;48.722;9.316;2022-11-23T14:55:16;7.50;99.90
70475;DHT22;57944;48.722;9.316;2022-11-23T14:57:50;7.40;99.90
70475;DHT22;57944;48.722;9.316;2022-11-23T15:06:07;7.30;99.90
70475;DHT22;57944;48.722;9.316;2022-11-23T15:11:42;7.50;99.90
70475;DHT22;57944;48.722;9.316;2022-11-23T15:14:19;7.40;99.90
70475;DHT22;57944;48.722;9.316;2022-11-23T15:16:55;7.30;99.90
70475;DHT22;57944;48.722;9.316;2022-11-23T15:19:26;7.20;99.90
70475;DHT22;57944;48.722;9.316;2022-11-23T15:21:59;7.10;99.90
70475;DHT22;57944;48.722;9.316;2022-11-23T15:24:29;7.00;99.90
70475;DHT22;57944;48.722;9.316;2022-11-23T15:27:05;6.90;99.90
70475;DHT22;57944;48.722;9.316;2022-11-23T15:29:38;6.80;99.90
70475;DHT22;57944;48.722;9.316;2022-11-23T15:37:48;6.60;99.90
70475;DHT22;57944;48.722;9.316;2022-11-23T15:40:27;6.20;99.90
70475;DHT22;57944;48.722;9.316;2022-11-23T15:42:59;6.20;99.90
70475;DHT22;57944;48.722;9.316;2022-11-23T15:48:38;5.90;99.90
70475;DHT22;57944;48.722;9.316;2022-11-23T15:51:23;5.90;99.90
70475;DHT22;57944;48.722;9.316;2022-11-23T15:53:58;6.00;99.90
70475;DHT22;57944;48.722;9.316;2022-11-23T15:56:31;6.20;99.90
70475;DHT22;57944;48.722;9.316;2022-11-23T15:59:12;6.00;99.90
70475;DHT22;57944;48.722;9.316;2022-11-23T16:02:04;5.90;99.90
70475;DHT22;57944;48.722;9.316;2022-11-23T16:04:37;5.80;99.90
70475;DHT22;57944;48.722;9.316;2022-11-23T16:07:15;5.80;99.90
70475;DHT22;57944;48.722;9.316;2022-11-23T16:09:47;5.70;99.90
70475;DHT22;57944;48.722;9.316;2022-11-23T16:12:25;5.70;99.90
70475;DHT22;57944;48.722;9.316;2022-11-23T16:14:58;5.70;99.90
70475;DHT22;57944;48.722;9.316;2022-11-23T16:23:55;5.90;99.90
70475;DHT22;57944;48.722;9.316;2022-11-23T16:26:29;6.20;99.90
70475;DHT22;57944;48.722;9.316;2022-11-23T16:29:00;6.30;99.90
70475;DHT22;57944;48.722;9.316;2022-11-23T16:31:36;6.40;99.90
70475;DHT22;57944;48.722;9.316;2022-11-23T16:34:09;6.60;99.90
70475;DHT22;57944;48.722;9.316;2022-11-23T16:36:42;7.00;99.90
70475;DHT22;57944;48.722;9.316;2022-11-23T16:39:14;7.10;99.90
70475;DHT22;57944;48.722;9.316;2022-11-23T16:41:45;7.20;99.90
70475;DHT22;57944;48.722;9.316;2022-11-23T16:44:15;7.30;99.90
70475;DHT22;57944;48.722;9.316;2022-11-23T16:46:45;7.40;99.90
70475;DHT22;57944;48.722;9.316;2022-11-23T16:49:17;7.40;99.90
70475;DHT22;57944;48.722;9.316;2022-11-23T16:51:51;7.50;99.90
70475;DHT22;57944;48.722;9.316;2022-11-23T16:54:26;7.50;99.90
70475;DHT22;57944;48.722;9.316;2022-11-23T16:56:56;7.60;99.90
70475;DHT22;57944;48.722;9.316;2022-11-23T16:59:26;7.70;99.90
70475;DHT22;57944;48.722;9.316;2022-11-23T17:01:56;7.50;99.90
70475;DHT22;57944;48.722;9.316;2022-11-23T17:04:27;7.40;99.90
70475;DHT22;57944;48.722;9.316;2022-11-23T17:06:58;7.30;99.90
70475;DHT22;57944;48.722;9.316;2022-11-23T17:09:32;7.40;99.90
70475;DHT22;57944;48.722;9.316;2022-11-23T17:12:04;7.40;99.90
70475;DHT22;57944;48.722;9.316;2022-11-23T17:14:40;7.30;99.90
70475;DHT22;57944;48.722;9.316;2022-11-23T17:17:14;7.00;99.90
70475;DHT22;57944;48.722;9.316;2022-11-23T17:19:48;7.00;99.90
70475;DHT22;57944;48.722;9.316;2022-11-23T17:22:19;6.90;99.90
70475;DHT22;57944;48.722;9.316;2022-11-23T17:24:52;6.80;99.90
70475;DHT22;57944;48.722;9.316;2022-11-23T17:27:23;6.60;99.90
70475;DHT22;57944;48.722;9.316;2022-11-23T17:29:56;6.60;99.90
70475;DHT22;57944;48.722;9.316;2022-11-23T17:32:29;6.50;99.90
70475;DHT22;57944;48.722;9.316;2022-11-23T17:34:59;6.50;99.90
70475;DHT22;57944;48.722;9.316;2022-11-23T17:37:29;6.50;99.90
70475;DHT22;57944;48.722;9.316;2022-11-23T17:40:02;6.50;99.90
70475;DHT22;57944;48.722;9.316;2022-11-23T17:42:32;6.50;99.90
70475;DHT22;57944;48.722;9.316;2022-11-23T17:45:03;6.40;99.90
70475;DHT22;57944;48.722;9.316;2022-11-23T17:47:35;6.50;99.90
70475;DHT22;57944;48.722;9.316;2022-11-23T17:50:10;6.50;99.90
70475;DHT22;57944;48.722;9.316;2022-11-23T17:52:43;6.40;99.90
70475;DHT22;57944;48.722;9.316;2022-11-23T17:55:16;6.30;99.90
70475;DHT22;57944;48.722;9.316;2022-11-23T17:57:46;6.20;99.90
70475;DHT22;57944;48.722;9.316;2022-11-23T18:00:18;6.20;99.90
70475;DHT22;57944;48.722;9.316;2022-11-23T18:02:50;6.30;99.90
70475;DHT22;57944;48.722;9.316;2022-11-23T18:05:21;6.30;99.90